aviador You're here:

K2C8 Decoded Metar

in
Report Time2018-07-18 20:15:00
UTC Time2018-07-18 20:17:13
Flight Rules vfr VFR
Wind170° at 09 kt
W.Rank170° ranks 4
Current wind is below 170° avg. (9.7)
Visibility9999 m
Phenomena:N/A
Clouds:N/A
Expected CloudBase > 3,600 ft AGL from Temp-Dew spread
CeilingNone
Temp29°C
Dew Point20°C (58% RH)
Heat Index30.7°C
QNH1013 hPa
Raw Report
K2C8 182015Z AUTO 17009KT 10SM CLR 29/20 A2992 RMK AO2=

Extra information for K2C8:More info

Social comments